createdAt,value
2018-09-18T00:09:01.327Z,13.1
2018-09-18T00:14:01.257Z,13.0
2018-09-18T00:19:01.396Z,12.9
2018-09-18T00:24:01.238Z,12.8
2018-09-18T00:29:02.308Z,12.7
2018-09-18T00:34:01.275Z,12.6
2018-09-18T00:44:02.281Z,12.5
2018-09-18T00:54:01.381Z,12.4
2018-09-18T01:09:01.261Z,12.5
2018-09-18T01:14:01.255Z,12.6
2018-09-18T01:19:02.286Z,12.7
2018-09-18T01:24:01.261Z,12.6
2018-09-18T01:34:01.407Z,12.5
2018-09-18T01:39:01.314Z,12.4
2018-09-18T01:49:01.312Z,12.5
2018-09-18T01:54:01.314Z,12.6
2018-09-18T01:59:01.298Z,12.8
2018-09-18T02:04:01.252Z,13.0
2018-09-18T02:09:01.324Z,13.2
2018-09-18T02:14:01.315Z,13.3
2018-09-18T02:19:01.387Z,13.4
2018-09-18T02:30:02.286Z,13.5
2018-09-18T02:40:01.347Z,13.6
2018-09-18T02:45:01.248Z,13.7
2018-09-18T02:55:01.311Z,13.8
2018-09-18T03:00:01.265Z,13.8
2018-09-18T03:15:01.390Z,13.8
2018-09-18T03:20:01.389Z,13.7
2018-09-18T03:30:01.337Z,13.7
2018-09-18T03:35:01.403Z,13.6
2018-09-18T03:45:01.252Z,13.6
2018-09-18T03:55:02.278Z,13.5
2018-09-18T04:00:01.392Z,13.3
2018-09-18T04:05:01.429Z,13.2
2018-09-18T04:10:01.392Z,12.9
2018-09-18T04:15:01.447Z,12.6
2018-09-18T04:20:01.617Z,12.3
2018-09-18T04:25:01.464Z,12.2
2018-09-18T04:30:01.443Z,12.0
2018-09-18T04:35:01.578Z,11.9
2018-09-18T04:40:01.449Z,11.8
2018-09-18T04:45:01.512Z,11.7
2018-09-18T05:00:01.464Z,11.7
2018-09-18T05:15:01.607Z,11.7
2018-09-18T05:26:01.451Z,11.8
2018-09-18T05:31:01.405Z,11.9
2018-09-18T05:36:01.418Z,12.2
2018-09-18T05:41:01.655Z,12.4
2018-09-18T05:46:01.399Z,12.7
2018-09-18T05:51:01.398Z,12.9
2018-09-18T05:56:01.420Z,13.1
2018-09-18T06:01:01.436Z,13.2
2018-09-18T06:06:01.446Z,13.4
2018-09-18T06:11:01.497Z,13.5
2018-09-18T06:16:01.467Z,13.7
2018-09-18T06:21:01.490Z,13.8
2018-09-18T06:26:01.445Z,14.0
2018-09-18T06:31:01.455Z,14.1
2018-09-18T06:36:01.524Z,14.4
2018-09-18T06:41:01.427Z,14.6
2018-09-18T06:46:01.440Z,14.9
2018-09-18T06:51:01.431Z,15.1
2018-09-18T06:56:01.448Z,15.5
2018-09-18T07:01:01.559Z,15.8
2018-09-18T07:06:01.412Z,16.1
2018-09-18T07:11:01.272Z,16.3
2018-09-18T07:16:01.526Z,16.7
2018-09-18T07:21:01.383Z,16.9
2018-09-18T07:26:01.279Z,17.2
2018-09-18T07:31:01.331Z,17.4
2018-09-18T07:36:01.341Z,17.6
2018-09-18T07:42:02.353Z,17.8
2018-09-18T07:47:01.324Z,18.1
2018-09-18T07:52:01.329Z,18.4
2018-09-18T07:57:01.339Z,18.6
2018-09-18T08:02:01.272Z,18.8
2018-09-18T08:07:03.330Z,19.0
2018-09-18T08:12:01.277Z,19.2
2018-09-18T08:17:01.314Z,19.4
2018-09-18T08:22:01.348Z,19.6
2018-09-18T08:27:01.284Z,19.9
2018-09-18T08:32:01.282Z,20.1
2018-09-18T08:37:01.382Z,20.3
2018-09-18T08:42:01.269Z,20.5
2018-09-18T08:47:01.418Z,20.7
2018-09-18T08:52:01.411Z,20.9
2018-09-18T08:57:01.399Z,21.1
2018-09-18T09:02:01.289Z,21.3
2018-09-18T09:07:01.453Z,21.5
2018-09-18T09:12:01.400Z,21.7
2018-09-18T09:17:01.373Z,21.9
2018-09-18T09:22:01.526Z,22.0
2018-09-18T09:27:01.580Z,22.2
2018-09-18T09:32:01.287Z,22.4
2018-09-18T09:37:01.525Z,22.6
2018-09-18T09:42:01.369Z,22.7
2018-09-18T09:47:01.381Z,22.9
2018-09-18T09:52:01.278Z,23.0
2018-09-18T09:57:01.481Z,23.2
2018-09-18T10:02:01.350Z,23.3
2018-09-18T10:07:01.317Z,23.5
2018-09-18T10:12:01.265Z,23.6
2018-09-18T10:17:01.420Z,23.8
2018-09-18T10:22:01.356Z,24.0
2018-09-18T10:27:01.427Z,24.2
2018-09-18T10:32:02.454Z,24.4
2018-09-18T10:37:01.502Z,24.6
2018-09-18T10:42:01.449Z,24.7
2018-09-18T10:47:01.647Z,24.8
2018-09-18T10:52:01.297Z,24.9
2018-09-18T10:57:01.324Z,25.1
2018-09-18T11:02:01.418Z,25.2
2018-09-18T11:07:01.452Z,25.4
2018-09-18T11:12:01.445Z,25.5
2018-09-18T11:17:01.363Z,25.7
2018-09-18T11:22:01.432Z,25.8
2018-09-18T11:27:01.399Z,26.0
2018-09-18T11:32:01.273Z,26.1
2018-09-18T11:37:01.375Z,26.2
2018-09-18T11:42:01.335Z,26.3
2018-09-18T11:47:01.391Z,26.5
2018-09-18T11:52:01.309Z,26.6
2018-09-18T11:57:01.405Z,26.7
2018-09-18T12:02:01.254Z,26.8
2018-09-18T12:07:01.331Z,27.0
2018-09-18T12:12:01.354Z,27.1
2018-09-18T12:17:01.524Z,27.3
2018-09-18T12:22:01.320Z,27.4
2018-09-18T12:27:01.437Z,27.5
2018-09-18T12:32:01.398Z,27.6
2018-09-18T12:37:01.393Z,27.7
2018-09-18T12:42:01.496Z,27.8
2018-09-18T12:47:01.463Z,27.9
2018-09-18T12:52:01.315Z,28.0
2018-09-18T12:57:01.529Z,28.1
2018-09-18T13:02:01.284Z,28.3
2018-09-18T13:07:01.467Z,28.4
2018-09-18T13:12:01.318Z,28.5
2018-09-18T13:17:01.303Z,28.6
2018-09-18T13:27:01.392Z,28.5
2018-09-18T13:37:01.424Z,28.4
2018-09-18T13:52:01.487Z,28.5
2018-09-18T14:02:01.122Z,28.6
2018-09-18T14:12:01.388Z,28.5
2018-09-18T14:22:01.426Z,28.4
2018-09-18T14:27:01.264Z,28.3
2018-09-18T14:42:01.383Z,28.3
